Rocky Grove, Pennsylvania
Current Conditions -  °F | °C
As of 11:15 PM on Tuesday 25 Nov 2014 (Local Time) from KFKL Reporting Station
Overcast Overcast  
Wind Chill: -5°   Ceiling: 2500
Heat Index: -1°   Visibility: 10mi
Dew Point: -4°   Wind: 8mph
Humidity: 80%   Direction: 330°NNW
Pressure: 30.16"   Gusts: NA
Location:  41.4663°N, 79.8305°W
Report Text: KFKL 260415Z AUTO 33007KT 10SM OVC025 M01/M04 A3016 RMK AO1
Loading
Personal Weather Stations






























Interactive Weather Map New forecast layout! Learn more

10-Day Weather Forecast

Advertisements
Track Severe Weather on mobile